createdAt,value
2022-12-09T00:04:43.741Z,95.63
2022-12-09T00:09:45.516Z,95.99
2022-12-09T00:14:47.227Z,96.23
2022-12-09T00:19:48.946Z,96.31
2022-12-09T00:24:50.936Z,95.76
2022-12-09T00:29:52.777Z,94.71
2022-12-09T00:34:54.499Z,94.49
2022-12-09T00:39:56.345Z,94.19
2022-12-09T00:44:58.427Z,93.60
2022-12-09T00:50:00.396Z,92.01
2022-12-09T00:55:02.810Z,92.17
2022-12-09T01:00:54.820Z,92.35
2022-12-09T01:05:56.654Z,92.19
2022-12-09T01:10:58.411Z,91.78
2022-12-09T01:16:00.191Z,90.61
2022-12-09T01:21:02.548Z,92.52
2022-12-09T01:26:05.602Z,92.30
2022-12-09T01:31:18.214Z,92.43
2022-12-09T01:36:23.342Z,91.75
2022-12-09T01:41:25.641Z,90.54
2022-12-09T01:46:27.517Z,91.47
2022-12-09T01:51:30.568Z,91.74
2022-12-09T01:56:35.956Z,91.04
2022-12-09T02:01:39.672Z,89.90
2022-12-09T02:06:41.520Z,89.86
2022-12-09T02:12:04.662Z,89.70
2022-12-09T02:17:26.346Z,89.72
2022-12-09T02:22:35.327Z,89.60
2022-12-09T02:28:12.967Z,88.36
2022-12-09T02:33:34.242Z,88.23
2022-12-09T02:38:41.126Z,87.63
2022-12-09T02:43:50.299Z,87.74
2022-12-09T02:48:59.413Z,87.54
2022-12-09T02:54:11.391Z,87.24
2022-12-09T02:59:14.161Z,87.58
2022-12-09T03:04:22.689Z,88.06
2022-12-09T03:09:32.976Z,88.76
2022-12-09T03:14:45.946Z,88.18
2022-12-09T03:19:59.065Z,87.50
2022-12-09T03:25:06.985Z,87.21
2022-12-09T03:30:11.271Z,89.01
2022-12-09T03:35:22.597Z,88.04
2022-12-09T03:40:28.423Z,88.78
2022-12-09T03:45:32.460Z,89.65
2022-12-09T03:50:49.574Z,90.13
2022-12-09T03:56:00.604Z,91.25
2022-12-09T04:01:03.036Z,91.22
2022-12-09T04:06:04.856Z,92.37
2022-12-09T04:11:06.874Z,93.09
2022-12-09T04:16:10.061Z,93.14
2022-12-09T04:21:13.238Z,93.06
2022-12-09T04:26:19.856Z,94.68
2022-12-09T04:31:22.082Z,93.84
2022-12-09T04:36:23.855Z,93.60
2022-12-09T04:41:25.856Z,93.17
2022-12-09T04:46:27.699Z,94.00
2022-12-09T04:51:34.264Z,93.57
2022-12-09T04:56:41.760Z,95.39
2022-12-09T05:01:43.673Z,94.04
2022-12-09T05:06:45.580Z,95.86
2022-12-09T05:11:48.046Z,96.15
2022-12-09T05:16:50.186Z,96.28
2022-12-09T05:21:51.975Z,97.35
2022-12-09T05:26:53.737Z,96.68
2022-12-09T05:31:55.356Z,97.76
2022-12-09T05:36:57.285Z,95.62
2022-12-09T05:41:59.376Z,95.88
2022-12-09T05:47:01.524Z,94.30
2022-12-09T05:52:03.847Z,95.27
2022-12-09T05:57:05.893Z,96.81
2022-12-09T06:02:10.282Z,95.87
2022-12-09T06:07:12.502Z,96.30
2022-12-09T06:12:15.344Z,96.34
2022-12-09T06:17:17.928Z,97.02
2022-12-09T06:22:19.740Z,98.30
2022-12-09T06:27:21.776Z,98.96
2022-12-09T06:32:23.789Z,97.52
2022-12-09T06:37:25.739Z,98.44
2022-12-09T06:42:27.755Z,98.11
2022-12-09T06:47:29.770Z,97.81
2022-12-09T06:52:31.686Z,98.26
2022-12-09T06:57:33.459Z,99.02
2022-12-09T07:02:36.742Z,99.49
2022-12-09T07:07:39.590Z,99.40
2022-12-09T07:12:41.816Z,97.90
2022-12-09T07:17:43.977Z,98.51
2022-12-09T07:22:46.013Z,99.43
2022-12-09T07:27:47.836Z,98.77
2022-12-09T07:32:50.111Z,99.46
2022-12-09T07:37:52.260Z,99.47
2022-12-09T07:42:59.075Z,99.61
2022-12-09T07:48:01.701Z,100.00
2022-12-09T07:53:03.947Z,99.42
2022-12-09T07:58:05.887Z,99.93
2022-12-09T08:03:08.052Z,100.00
2022-12-09T08:08:10.105Z,98.22
2022-12-09T08:13:12.963Z,98.49
2022-12-09T08:18:14.959Z,97.24
2022-12-09T08:23:16.749Z,97.19
2022-12-09T08:28:18.704Z,97.96
2022-12-09T08:33:20.739Z,98.66
2022-12-09T08:38:22.801Z,99.03
2022-12-09T08:43:24.593Z,98.76
2022-12-09T08:48:26.500Z,98.17
2022-12-09T08:53:28.351Z,98.62
2022-12-09T08:58:31.416Z,97.56
2022-12-09T09:03:33.360Z,98.81
2022-12-09T09:08:36.173Z,98.06
2022-12-09T09:13:42.924Z,98.33
2022-12-09T09:18:45.555Z,98.13
2022-12-09T09:23:48.218Z,96.68
2022-12-09T09:28:50.974Z,97.85
2022-12-09T09:33:53.418Z,98.66
2022-12-09T09:38:57.405Z,98.72
2022-12-09T09:43:59.949Z,99.16
2022-12-09T09:49:03.980Z,98.78
2022-12-09T09:54:08.909Z,100.00
2022-12-09T09:59:21.293Z,99.23
2022-12-09T10:04:36.946Z,98.57
2022-12-09T10:09:48.967Z,98.79
2022-12-09T10:14:56.247Z,99.16
2022-12-09T10:20:28.666Z,98.22
2022-12-09T10:25:35.812Z,97.74
2022-12-09T10:30:44.206Z,100.00
2022-12-09T10:35:47.695Z,100.00
2022-12-09T10:41:39.592Z,99.75
2022-12-09T10:46:41.840Z,100.00
2022-12-09T10:51:49.540Z,99.45
2022-12-09T10:57:03.604Z,100.00
2022-12-09T11:02:08.949Z,100.00
2022-12-09T11:07:22.933Z,100.00
2022-12-09T11:12:30.907Z,100.00
2022-12-09T11:17:36.848Z,100.00
2022-12-09T11:22:41.191Z,100.00
2022-12-09T11:27:48.913Z,100.00
2022-12-09T11:33:07.886Z,99.51
2022-12-09T11:38:36.364Z,99.86
2022-12-09T11:43:37.965Z,100.00
2022-12-09T11:49:01.340Z,100.00
2022-12-09T11:54:13.323Z,100.00
2022-12-09T11:59:24.124Z,100.00
2022-12-09T12:05:15.713Z,100.00
2022-12-09T12:10:34.942Z,100.00
2022-12-09T12:16:07.163Z,100.00
2022-12-09T12:21:26.548Z,100.00
2022-12-09T12:26:52.348Z,100.00
2022-12-09T12:32:02.543Z,99.72
2022-12-09T12:37:16.524Z,100.00
2022-12-09T12:43:07.225Z,100.00
2022-12-09T12:48:33.114Z,100.00
2022-12-09T12:53:34.805Z,99.98
2022-12-09T12:58:42.499Z,99.78
2022-12-09T13:03:46.936Z,99.58
2022-12-09T13:09:01.428Z,98.36
2022-12-09T13:14:16.120Z,97.99
2022-12-09T13:19:28.414Z,98.01
2022-12-09T13:25:00.293Z,97.58
2022-12-09T13:30:09.956Z,97.05
2022-12-09T13:35:35.947Z,96.81
2022-12-09T13:40:39.132Z,96.40
2022-12-09T13:45:44.194Z,94.71
2022-12-09T13:50:49.394Z,93.96
2022-12-09T13:56:01.601Z,94.62
2022-12-09T14:01:12.374Z,94.93
2022-12-09T14:06:28.088Z,95.08
2022-12-09T14:11:49.821Z,93.91
2022-12-09T14:16:53.568Z,93.82
2022-12-09T14:22:21.053Z,94.36
2022-12-09T14:27:31.759Z,94.13
2022-12-09T14:32:52.407Z,94.49
2022-12-09T14:38:04.184Z,94.42
2022-12-09T14:43:28.842Z,94.71
2022-12-09T14:48:39.138Z,93.67
2022-12-09T14:53:40.827Z,93.99
2022-12-09T14:58:48.209Z,92.74
2022-12-09T15:04:02.647Z,92.38
2022-12-09T15:09:04.388Z,92.77
2022-12-09T15:14:27.680Z,93.39
2022-12-09T15:19:59.265Z,93.59
2022-12-09T15:24:54.448Z,94.14
2022-12-09T15:29:56.478Z,94.68
2022-12-09T15:35:21.042Z,94.87
2022-12-09T15:40:29.055Z,94.23
2022-12-09T15:45:38.147Z,94.77
2022-12-09T15:50:50.935Z,95.44
2022-12-09T15:56:07.965Z,96.58
2022-12-09T16:01:09.963Z,98.04
2022-12-09T16:06:11.999Z,98.55
2022-12-09T16:11:33.982Z,97.65
2022-12-09T16:16:44.308Z,96.62
2022-12-09T16:21:46.083Z,98.33
2022-12-09T16:26:51.486Z,98.86
2022-12-09T16:32:18.947Z,99.44
2022-12-09T16:37:35.705Z,100.00
2022-12-09T16:42:41.015Z,100.00
2022-12-09T16:47:44.982Z,100.00
2022-12-09T16:52:46.837Z,100.00
2022-12-09T16:57:51.575Z,100.00
2022-12-09T17:03:03.511Z,100.00
2022-12-09T17:08:05.370Z,100.00
2022-12-09T17:13:07.253Z,99.85
2022-12-09T17:18:10.218Z,98.71
2022-12-09T17:23:12.268Z,100.00
2022-12-09T17:28:14.186Z,100.00
2022-12-09T17:33:16.718Z,100.00
2022-12-09T17:38:18.995Z,100.00
2022-12-09T17:43:20.823Z,100.00
2022-12-09T17:48:22.612Z,100.00
2022-12-09T17:53:25.018Z,100.00
2022-12-09T17:58:26.762Z,100.00
2022-12-09T18:03:54.258Z,100.00
2022-12-09T18:08:51.412Z,100.00
2022-12-09T18:13:54.121Z,100.00
2022-12-09T18:18:56.241Z,100.00
2022-12-09T18:23:58.074Z,100.00
2022-12-09T18:29:00.270Z,100.00
2022-12-09T18:34:02.141Z,100.00
2022-12-09T18:39:05.202Z,100.00
2022-12-09T18:44:08.768Z,100.00
2022-12-09T18:49:13.711Z,100.00
2022-12-09T18:54:22.850Z,100.00
2022-12-09T18:59:26.393Z,100.00
2022-12-09T19:04:29.798Z,100.00
2022-12-09T19:09:34.798Z,100.00
2022-12-09T19:14:42.194Z,100.00
2022-12-09T19:19:46.481Z,100.00
2022-12-09T19:24:48.279Z,100.00
2022-12-09T19:29:51.057Z,100.00
2022-12-09T19:34:53.065Z,100.00
2022-12-09T19:39:57.090Z,100.00
2022-12-09T19:45:01.980Z,100.00
2022-12-09T19:50:05.535Z,100.00
2022-12-09T19:55:08.481Z,100.00
2022-12-09T20:00:11.414Z,100.00
2022-12-09T20:05:13.211Z,100.00
2022-12-09T20:10:15.090Z,100.00
2022-12-09T20:15:17.156Z,100.00
2022-12-09T20:20:18.853Z,100.00
2022-12-09T20:25:20.688Z,100.00
2022-12-09T20:30:22.361Z,100.00
2022-12-09T20:35:26.396Z,100.00
2022-12-09T20:40:28.263Z,100.00
2022-12-09T20:45:30.096Z,100.00
2022-12-09T20:50:38.220Z,100.00
2022-12-09T20:55:40.595Z,100.00
2022-12-09T21:00:42.463Z,100.00
2022-12-09T21:05:44.265Z,100.00
2022-12-09T21:10:46.137Z,100.00
2022-12-09T21:15:47.992Z,100.00
2022-12-09T21:20:49.797Z,100.00
2022-12-09T21:25:51.828Z,99.88
2022-12-09T21:30:53.763Z,98.95
2022-12-09T21:35:55.551Z,98.37
2022-12-09T21:41:01.985Z,97.37
2022-12-09T21:46:07.350Z,97.20
2022-12-09T21:51:11.260Z,98.63
2022-12-09T21:56:16.453Z,98.33
2022-12-09T22:01:20.957Z,97.46
2022-12-09T22:06:23.472Z,97.04
2022-12-09T22:11:27.906Z,98.06
2022-12-09T22:16:39.040Z,96.40
2022-12-09T22:21:41.032Z,96.04
2022-12-09T22:26:46.107Z,97.31
2022-12-09T22:31:47.909Z,97.28
2022-12-09T22:36:50.104Z,96.35
2022-12-09T22:41:51.767Z,96.30
2022-12-09T22:46:53.921Z,96.08
2022-12-09T22:52:00.402Z,95.79
2022-12-09T22:57:02.493Z,96.36
2022-12-09T23:02:04.317Z,96.39
2022-12-09T23:07:06.100Z,96.88
2022-12-09T23:12:08.073Z,96.95
2022-12-09T23:17:09.726Z,97.08
2022-12-09T23:22:11.370Z,97.44
2022-12-09T23:27:13.047Z,98.28
2022-12-09T23:32:14.717Z,99.17
2022-12-09T23:37:16.452Z,100.00
2022-12-09T23:42:19.653Z,100.00
2022-12-09T23:47:21.372Z,100.00
2022-12-09T23:52:22.972Z,100.00
2022-12-09T23:57:24.574Z,100.00
